sensor_id;sensor_type;location;lat;lon;timestamp;temperature;humidity
78475;SHT31;67766;51.964;5.660;2023-12-28T00:01:35;11.8;69.2
78475;SHT31;67766;51.964;5.660;2023-12-28T00:04:04;11.8;69.3
78475;SHT31;67766;51.964;5.660;2023-12-28T00:06:33;11.8;69.4
78475;SHT31;67766;51.964;5.660;2023-12-28T00:09:05;11.9;69.2
78475;SHT31;67766;51.964;5.660;2023-12-28T00:11:34;11.9;69.3
78475;SHT31;67766;51.964;5.660;2023-12-28T00:14:06;11.9;69.5
78475;SHT31;67766;51.964;5.660;2023-12-28T00:16:36;11.9;69.3
78475;SHT31;67766;51.964;5.660;2023-12-28T00:19:06;11.9;69.4
78475;SHT31;67766;51.964;5.660;2023-12-28T00:21:35;11.9;69.5
78475;SHT31;67766;51.964;5.660;2023-12-28T00:24:05;11.9;69.4
78475;SHT31;67766;51.964;5.660;2023-12-28T00:26:34;11.9;69.4
78475;SHT31;67766;51.964;5.660;2023-12-28T00:29:04;11.9;69.3
78475;SHT31;67766;51.964;5.660;2023-12-28T00:31:33;11.9;69.4
78475;SHT31;67766;51.964;5.660;2023-12-28T00:34:02;11.9;69.6
78475;SHT31;67766;51.964;5.660;2023-12-28T00:36:32;11.9;69.8
78475;SHT31;67766;51.964;5.660;2023-12-28T00:39:01;11.9;69.9
78475;SHT31;67766;51.964;5.660;2023-12-28T00:41:31;11.9;70.2
78475;SHT31;67766;51.964;5.660;2023-12-28T00:44:00;11.9;70.2
78475;SHT31;67766;51.964;5.660;2023-12-28T00:46:30;11.9;70.3
78475;SHT31;67766;51.964;5.660;2023-12-28T00:48:59;11.9;70.3
78475;SHT31;67766;51.964;5.660;2023-12-28T00:51:29;12.0;70.5
78475;SHT31;67766;51.964;5.660;2023-12-28T00:53:58;12.0;70.6
78475;SHT31;67766;51.964;5.660;2023-12-28T00:56:27;12.0;70.7
78475;SHT31;67766;51.964;5.660;2023-12-28T00:58:57;12.0;70.7
78475;SHT31;67766;51.964;5.660;2023-12-28T01:01:26;11.9;70.9
78475;SHT31;67766;51.964;5.660;2023-12-28T01:03:57;11.9;71.0
78475;SHT31;67766;51.964;5.660;2023-12-28T01:06:27;11.9;71.1
78475;SHT31;67766;51.964;5.660;2023-12-28T01:08:56;11.9;71.2
78475;SHT31;67766;51.964;5.660;2023-12-28T01:11:26;11.9;71.2
78475;SHT31;67766;51.964;5.660;2023-12-28T01:13:57;11.9;71.2
78475;SHT31;67766;51.964;5.660;2023-12-28T01:16:27;11.9;71.4
78475;SHT31;67766;51.964;5.660;2023-12-28T01:18:56;11.9;71.3
78475;SHT31;67766;51.964;5.660;2023-12-28T01:21:25;11.9;71.4
78475;SHT31;67766;51.964;5.660;2023-12-28T01:23:56;11.9;71.5
78475;SHT31;67766;51.964;5.660;2023-12-28T01:26:25;11.9;71.4
78475;SHT31;67766;51.964;5.660;2023-12-28T01:28:54;11.9;71.7
78475;SHT31;67766;51.964;5.660;2023-12-28T01:31:24;11.9;71.7
78475;SHT31;67766;51.964;5.660;2023-12-28T01:33:53;11.8;71.9
78475;SHT31;67766;51.964;5.660;2023-12-28T01:36:23;11.8;72.1
78475;SHT31;67766;51.964;5.660;2023-12-28T01:38:53;11.8;72.3
78475;SHT31;67766;51.964;5.660;2023-12-28T01:41:23;11.8;72.3
78475;SHT31;67766;51.964;5.660;2023-12-28T01:43:52;11.8;72.5
78475;SHT31;67766;51.964;5.660;2023-12-28T01:46:22;11.7;72.7
78475;SHT31;67766;51.964;5.660;2023-12-28T01:48:54;11.7;72.8
78475;SHT31;67766;51.964;5.660;2023-12-28T01:51:24;11.7;72.9
78475;SHT31;67766;51.964;5.660;2023-12-28T01:53:57;11.7;73.1
78475;SHT31;67766;51.964;5.660;2023-12-28T01:56:29;11.7;73.1
78475;SHT31;67766;51.964;5.660;2023-12-28T01:58:59;11.7;73.0
78475;SHT31;67766;51.964;5.660;2023-12-28T02:01:29;11.7;72.9
78475;SHT31;67766;51.964;5.660;2023-12-28T02:03:59;11.7;73.0
78475;SHT31;67766;51.964;5.660;2023-12-28T02:06:29;11.7;73.2
78475;SHT31;67766;51.964;5.660;2023-12-28T02:08:58;11.7;73.4
78475;SHT31;67766;51.964;5.660;2023-12-28T02:11:28;11.7;73.5
78475;SHT31;67766;51.964;5.660;2023-12-28T02:13:58;11.7;73.5
78475;SHT31;67766;51.964;5.660;2023-12-28T02:16:32;11.7;73.6
78475;SHT31;67766;51.964;5.660;2023-12-28T02:19:11;11.6;73.7
78475;SHT31;67766;51.964;5.660;2023-12-28T02:21:44;11.6;73.7
78475;SHT31;67766;51.964;5.660;2023-12-28T02:24:13;11.6;73.7
78475;SHT31;67766;51.964;5.660;2023-12-28T02:26:43;11.6;73.7
78475;SHT31;67766;51.964;5.660;2023-12-28T02:29:12;11.6;73.7
78475;SHT31;67766;51.964;5.660;2023-12-28T02:31:47;11.6;73.8
78475;SHT31;67766;51.964;5.660;2023-12-28T02:34:25;11.6;73.9
78475;SHT31;67766;51.964;5.660;2023-12-28T02:36:57;11.6;73.8
78475;SHT31;67766;51.964;5.660;2023-12-28T02:39:29;11.6;73.9
78475;SHT31;67766;51.964;5.660;2023-12-28T02:42:01;11.6;74.0
78475;SHT31;67766;51.964;5.660;2023-12-28T02:44:31;11.6;74.1
78475;SHT31;67766;51.964;5.660;2023-12-28T02:47:00;11.6;74.2
78475;SHT31;67766;51.964;5.660;2023-12-28T02:49:30;11.6;74.2
78475;SHT31;67766;51.964;5.660;2023-12-28T02:51:59;11.6;74.3
78475;SHT31;67766;51.964;5.660;2023-12-28T02:54:29;11.6;74.4
78475;SHT31;67766;51.964;5.660;2023-12-28T02:56:58;11.6;74.4
78475;SHT31;67766;51.964;5.660;2023-12-28T02:59:28;11.6;74.5
78475;SHT31;67766;51.964;5.660;2023-12-28T03:01:57;11.6;74.6
78475;SHT31;67766;51.964;5.660;2023-12-28T03:04:26;11.5;74.5
78475;SHT31;67766;51.964;5.660;2023-12-28T03:06:56;11.5;74.6
78475;SHT31;67766;51.964;5.660;2023-12-28T03:09:25;11.5;74.6
78475;SHT31;67766;51.964;5.660;2023-12-28T03:11:55;11.5;74.6
78475;SHT31;67766;51.964;5.660;2023-12-28T03:14:24;11.5;74.7
78475;SHT31;67766;51.964;5.660;2023-12-28T03:16:53;11.5;74.5
78475;SHT31;67766;51.964;5.660;2023-12-28T03:19:23;11.5;74.6
78475;SHT31;67766;51.964;5.660;2023-12-28T03:21:52;11.5;74.6
78475;SHT31;67766;51.964;5.660;2023-12-28T03:24:22;11.5;74.7
78475;SHT31;67766;51.964;5.660;2023-12-28T03:26:51;11.5;74.7
78475;SHT31;67766;51.964;5.660;2023-12-28T03:29:21;11.5;74.8
78475;SHT31;67766;51.964;5.660;2023-12-28T03:31:50;11.5;74.8
78475;SHT31;67766;51.964;5.660;2023-12-28T03:34:19;11.5;74.7
78475;SHT31;67766;51.964;5.660;2023-12-28T03:36:50;11.6;74.9
78475;SHT31;67766;51.964;5.660;2023-12-28T03:39:19;11.6;74.7
78475;SHT31;67766;51.964;5.660;2023-12-28T03:41:49;11.6;74.2
78475;SHT31;67766;51.964;5.660;2023-12-28T03:44:21;11.6;74.2
78475;SHT31;67766;51.964;5.660;2023-12-28T03:46:51;11.7;74.0
78475;SHT31;67766;51.964;5.660;2023-12-28T03:49:21;11.7;73.8
78475;SHT31;67766;51.964;5.660;2023-12-28T03:51:50;11.7;73.6
78475;SHT31;67766;51.964;5.660;2023-12-28T03:54:20;11.7;73.4
78475;SHT31;67766;51.964;5.660;2023-12-28T03:56:49;11.8;73.4
78475;SHT31;67766;51.964;5.660;2023-12-28T03:59:19;11.8;73.5
78475;SHT31;67766;51.964;5.660;2023-12-28T04:01:48;11.8;73.2
78475;SHT31;67766;51.964;5.660;2023-12-28T04:04:18;11.8;72.9
78475;SHT31;67766;51.964;5.660;2023-12-28T04:06:47;11.8;72.7
78475;SHT31;67766;51.964;5.660;2023-12-28T04:09:16;11.8;72.8
78475;SHT31;67766;51.964;5.660;2023-12-28T04:11:46;11.8;72.6
78475;SHT31;67766;51.964;5.660;2023-12-28T04:14:16;11.8;72.5
78475;SHT31;67766;51.964;5.660;2023-12-28T04:16:46;11.8;72.4
78475;SHT31;67766;51.964;5.660;2023-12-28T04:19:15;11.9;72.2
78475;SHT31;67766;51.964;5.660;2023-12-28T04:21:45;11.9;72.3
78475;SHT31;67766;51.964;5.660;2023-12-28T04:24:14;11.9;71.9
78475;SHT31;67766;51.964;5.660;2023-12-28T04:26:44;11.9;71.9
78475;SHT31;67766;51.964;5.660;2023-12-28T04:29:13;11.9;71.7
78475;SHT31;67766;51.964;5.660;2023-12-28T04:31:44;11.9;71.6
78475;SHT31;67766;51.964;5.660;2023-12-28T04:34:14;11.9;71.7
78475;SHT31;67766;51.964;5.660;2023-12-28T04:36:44;11.9;71.7
78475;SHT31;67766;51.964;5.660;2023-12-28T04:39:14;11.9;71.7
78475;SHT31;67766;51.964;5.660;2023-12-28T04:41:43;11.9;71.7
78475;SHT31;67766;51.964;5.660;2023-12-28T04:44:13;11.9;71.7
78475;SHT31;67766;51.964;5.660;2023-12-28T04:46:42;11.9;71.5
78475;SHT31;67766;51.964;5.660;2023-12-28T04:49:12;11.9;71.5
78475;SHT31;67766;51.964;5.660;2023-12-28T04:51:44;11.9;71.6
78475;SHT31;67766;51.964;5.660;2023-12-28T04:54:13;11.9;71.4
78475;SHT31;67766;51.964;5.660;2023-12-28T04:56:43;11.9;71.3
78475;SHT31;67766;51.964;5.660;2023-12-28T04:59:13;12.0;71.3
78475;SHT31;67766;51.964;5.660;2023-12-28T05:01:43;12.0;71.3
78475;SHT31;67766;51.964;5.660;2023-12-28T05:04:12;12.0;70.9
78475;SHT31;67766;51.964;5.660;2023-12-28T05:06:42;12.0;70.7
78475;SHT31;67766;51.964;5.660;2023-12-28T05:09:11;12.0;70.7
78475;SHT31;67766;51.964;5.660;2023-12-28T05:11:41;12.1;70.4
78475;SHT31;67766;51.964;5.660;2023-12-28T05:14:12;12.1;70.2
78475;SHT31;67766;51.964;5.660;2023-12-28T05:16:44;12.1;70.2
78475;SHT31;67766;51.964;5.660;2023-12-28T05:19:13;12.1;70.0
78475;SHT31;67766;51.964;5.660;2023-12-28T05:21:43;12.2;69.7
78475;SHT31;67766;51.964;5.660;2023-12-28T05:24:13;12.2;69.6
78475;SHT31;67766;51.964;5.660;2023-12-28T05:26:43;12.2;69.4
78475;SHT31;67766;51.964;5.660;2023-12-28T05:29:12;12.2;69.4
78475;SHT31;67766;51.964;5.660;2023-12-28T05:31:42;12.2;69.3
78475;SHT31;67766;51.964;5.660;2023-12-28T05:34:11;12.2;68.8
78475;SHT31;67766;51.964;5.660;2023-12-28T05:36:40;12.2;68.9
78475;SHT31;67766;51.964;5.660;2023-12-28T05:39:12;12.3;68.6
78475;SHT31;67766;51.964;5.660;2023-12-28T05:41:42;12.3;68.6
78475;SHT31;67766;51.964;5.660;2023-12-28T05:44:14;12.3;68.5
78475;SHT31;67766;51.964;5.660;2023-12-28T05:46:44;12.2;68.4
78475;SHT31;67766;51.964;5.660;2023-12-28T05:49:14;12.3;68.3
78475;SHT31;67766;51.964;5.660;2023-12-28T05:51:43;12.3;68.5
78475;SHT31;67766;51.964;5.660;2023-12-28T05:54:14;12.3;68.8
78475;SHT31;67766;51.964;5.660;2023-12-28T05:56:44;12.3;68.4
78475;SHT31;67766;51.964;5.660;2023-12-28T05:59:13;12.3;68.4
78475;SHT31;67766;51.964;5.660;2023-12-28T06:01:43;12.3;68.4
78475;SHT31;67766;51.964;5.660;2023-12-28T06:04:14;12.4;68.4
78475;SHT31;67766;51.964;5.660;2023-12-28T06:06:44;12.4;68.2
78475;SHT31;67766;51.964;5.660;2023-12-28T06:09:13;12.4;68.0
78475;SHT31;67766;51.964;5.660;2023-12-28T06:11:42;12.4;68.3
78475;SHT31;67766;51.964;5.660;2023-12-28T06:14:14;12.4;68.0
78475;SHT31;67766;51.964;5.660;2023-12-28T06:16:43;12.4;68.0
78475;SHT31;67766;51.964;5.660;2023-12-28T06:19:13;12.4;68.1
78475;SHT31;67766;51.964;5.660;2023-12-28T06:21:42;12.4;68.1
78475;SHT31;67766;51.964;5.660;2023-12-28T06:24:11;12.4;67.9
78475;SHT31;67766;51.964;5.660;2023-12-28T06:26:42;12.4;68.0
78475;SHT31;67766;51.964;5.660;2023-12-28T06:29:12;12.4;68.1
78475;SHT31;67766;51.964;5.660;2023-12-28T06:31:42;12.4;68.0
78475;SHT31;67766;51.964;5.660;2023-12-28T06:34:11;12.4;67.9
78475;SHT31;67766;51.964;5.660;2023-12-28T06:36:40;12.4;67.8
78475;SHT31;67766;51.964;5.660;2023-12-28T06:39:10;12.4;67.7
78475;SHT31;67766;51.964;5.660;2023-12-28T06:41:40;12.4;67.7
78475;SHT31;67766;51.964;5.660;2023-12-28T06:44:11;12.4;67.4
78475;SHT31;67766;51.964;5.660;2023-12-28T06:46:41;12.4;67.4
78475;SHT31;67766;51.964;5.660;2023-12-28T06:49:10;12.4;67.3
78475;SHT31;67766;51.964;5.660;2023-12-28T06:51:40;12.4;67.4
78475;SHT31;67766;51.964;5.660;2023-12-28T06:54:10;12.4;67.4
78475;SHT31;67766;51.964;5.660;2023-12-28T06:56:39;12.4;67.4
78475;SHT31;67766;51.964;5.660;2023-12-28T06:59:09;12.4;67.4
78475;SHT31;67766;51.964;5.660;2023-12-28T07:01:39;12.4;67.5
78475;SHT31;67766;51.964;5.660;2023-12-28T07:04:09;12.4;67.5
78475;SHT31;67766;51.964;5.660;2023-12-28T07:06:39;12.5;67.3
78475;SHT31;67766;51.964;5.660;2023-12-28T07:09:09;12.5;67.3
78475;SHT31;67766;51.964;5.660;2023-12-28T07:11:38;12.5;67.1
78475;SHT31;67766;51.964;5.660;2023-12-28T07:14:07;12.5;66.7
78475;SHT31;67766;51.964;5.660;2023-12-28T07:16:37;12.5;66.7
78475;SHT31;67766;51.964;5.660;2023-12-28T07:19:06;12.5;66.8
78475;SHT31;67766;51.964;5.660;2023-12-28T07:21:36;12.5;66.9
78475;SHT31;67766;51.964;5.660;2023-12-28T07:24:05;12.5;66.8
78475;SHT31;67766;51.964;5.660;2023-12-28T07:26:35;12.5;66.6
78475;SHT31;67766;51.964;5.660;2023-12-28T07:29:04;12.5;67.0
78475;SHT31;67766;51.964;5.660;2023-12-28T07:31:34;12.5;66.8
78475;SHT31;67766;51.964;5.660;2023-12-28T07:34:04;12.5;67.0
78475;SHT31;67766;51.964;5.660;2023-12-28T07:36:33;12.5;66.9
78475;SHT31;67766;51.964;5.660;2023-12-28T07:39:03;12.5;66.9
78475;SHT31;67766;51.964;5.660;2023-12-28T07:41:33;12.5;67.0
78475;SHT31;67766;51.964;5.660;2023-12-28T07:44:02;12.5;67.0
78475;SHT31;67766;51.964;5.660;2023-12-28T07:46:32;12.5;67.0
78475;SHT31;67766;51.964;5.660;2023-12-28T07:49:01;12.4;67.0
78475;SHT31;67766;51.964;5.660;2023-12-28T07:51:31;12.4;67.1
78475;SHT31;67766;51.964;5.660;2023-12-28T07:54:02;12.4;67.2
78475;SHT31;67766;51.964;5.660;2023-12-28T07:56:31;12.4;67.2
78475;SHT31;67766;51.964;5.660;2023-12-28T07:59:01;12.4;67.4
78475;SHT31;67766;51.964;5.660;2023-12-28T08:01:30;12.4;67.4
78475;SHT31;67766;51.964;5.660;2023-12-28T08:04:00;12.4;67.5
78475;SHT31;67766;51.964;5.660;2023-12-28T08:06:32;12.4;67.4
78475;SHT31;67766;51.964;5.660;2023-12-28T08:09:02;12.5;67.0
78475;SHT31;67766;51.964;5.660;2023-12-28T08:11:31;12.5;67.2
78475;SHT31;67766;51.964;5.660;2023-12-28T08:14:01;12.5;67.1
78475;SHT31;67766;51.964;5.660;2023-12-28T08:16:31;12.5;67.3
78475;SHT31;67766;51.964;5.660;2023-12-28T08:19:02;12.5;67.2
78475;SHT31;67766;51.964;5.660;2023-12-28T08:21:31;12.5;67.2
78475;SHT31;67766;51.964;5.660;2023-12-28T08:24:02;12.5;67.1
78475;SHT31;67766;51.964;5.660;2023-12-28T08:26:33;12.5;67.2
78475;SHT31;67766;51.964;5.660;2023-12-28T08:29:02;12.5;67.0
78475;SHT31;67766;51.964;5.660;2023-12-28T08:31:34;12.5;67.3
78475;SHT31;67766;51.964;5.660;2023-12-28T08:34:03;12.5;67.2
78475;SHT31;67766;51.964;5.660;2023-12-28T08:36:32;12.5;67.3
78475;SHT31;67766;51.964;5.660;2023-12-28T08:39:02;12.5;67.3
78475;SHT31;67766;51.964;5.660;2023-12-28T08:41:32;12.6;67.2
78475;SHT31;67766;51.964;5.660;2023-12-28T08:44:01;12.6;67.1
78475;SHT31;67766;51.964;5.660;2023-12-28T08:46:33;12.6;66.9
78475;SHT31;67766;51.964;5.660;2023-12-28T08:49:03;12.6;66.7
78475;SHT31;67766;51.964;5.660;2023-12-28T08:51:32;12.6;66.9
78475;SHT31;67766;51.964;5.660;2023-12-28T08:54:02;12.6;66.5
78475;SHT31;67766;51.964;5.660;2023-12-28T08:56:31;12.6;66.6
78475;SHT31;67766;51.964;5.660;2023-12-28T08:59:01;12.6;66.4
78475;SHT31;67766;51.964;5.660;2023-12-28T09:01:33;12.6;66.5
78475;SHT31;67766;51.964;5.660;2023-12-28T09:04:02;12.6;66.4
78475;SHT31;67766;51.964;5.660;2023-12-28T09:06:32;12.6;66.2
78475;SHT31;67766;51.964;5.660;2023-12-28T09:09:03;12.6;66.5
78475;SHT31;67766;51.964;5.660;2023-12-28T09:11:33;12.6;66.2
78475;SHT31;67766;51.964;5.660;2023-12-28T09:14:03;12.6;66.5
78475;SHT31;67766;51.964;5.660;2023-12-28T09:16:32;12.6;66.2
78475;SHT31;67766;51.964;5.660;2023-12-28T09:19:02;12.6;66.5
78475;SHT31;67766;51.964;5.660;2023-12-28T09:21:32;12.6;66.1
78475;SHT31;67766;51.964;5.660;2023-12-28T09:24:01;12.6;66.3
78475;SHT31;67766;51.964;5.660;2023-12-28T09:26:30;12.6;66.4
78475;SHT31;67766;51.964;5.660;2023-12-28T09:29:00;12.6;66.6
78475;SHT31;67766;51.964;5.660;2023-12-28T09:31:29;12.5;66.8
78475;SHT31;67766;51.964;5.660;2023-12-28T09:33:59;12.5;66.7
78475;SHT31;67766;51.964;5.660;2023-12-28T09:36:30;12.5;66.6
78475;SHT31;67766;51.964;5.660;2023-12-28T09:39:00;12.5;66.7
78475;SHT31;67766;51.964;5.660;2023-12-28T09:41:36;12.5;66.7
78475;SHT31;67766;51.964;5.660;2023-12-28T09:44:11;12.5;66.6
78475;SHT31;67766;51.964;5.660;2023-12-28T09:46:43;12.5;66.6
78475;SHT31;67766;51.964;5.660;2023-12-28T09:49:14;12.5;66.9
78475;SHT31;67766;51.964;5.660;2023-12-28T09:51:46;12.6;66.8
78475;SHT31;67766;51.964;5.660;2023-12-28T09:54:15;12.7;66.4
78475;SHT31;67766;51.964;5.660;2023-12-28T09:56:46;12.7;66.3
78475;SHT31;67766;51.964;5.660;2023-12-28T09:59:15;12.8;66.2
78475;SHT31;67766;51.964;5.660;2023-12-28T10:01:48;12.8;66.2
78475;SHT31;67766;51.964;5.660;2023-12-28T10:04:18;12.8;65.6
78475;SHT31;67766;51.964;5.660;2023-12-28T10:06:48;12.8;66.1
78475;SHT31;67766;51.964;5.660;2023-12-28T10:09:18;12.8;65.7
78475;SHT31;67766;51.964;5.660;2023-12-28T10:11:47;12.8;65.7
78475;SHT31;67766;51.964;5.660;2023-12-28T10:14:19;12.8;65.5
78475;SHT31;67766;51.964;5.660;2023-12-28T10:16:49;12.8;65.6
78475;SHT31;67766;51.964;5.660;2023-12-28T10:19:23;12.8;65.9
78475;SHT31;67766;51.964;5.660;2023-12-28T10:21:52;12.8;65.5
78475;SHT31;67766;51.964;5.660;2023-12-28T10:24:22;12.8;65.7
78475;SHT31;67766;51.964;5.660;2023-12-28T10:26:52;12.8;65.5
78475;SHT31;67766;51.964;5.660;2023-12-28T10:29:24;12.9;65.3
78475;SHT31;67766;51.964;5.660;2023-12-28T10:31:53;12.9;65.6
78475;SHT31;67766;51.964;5.660;2023-12-28T10:34:23;13.0;65.0
78475;SHT31;67766;51.964;5.660;2023-12-28T10:36:53;13.0;64.8
78475;SHT31;67766;51.964;5.660;2023-12-28T10:39:25;13.0;64.4
78475;SHT31;67766;51.964;5.660;2023-12-28T10:41:55;13.1;64.6
78475;SHT31;67766;51.964;5.660;2023-12-28T10:44:28;13.1;64.4
78475;SHT31;67766;51.964;5.660;2023-12-28T10:47:02;13.1;64.1
78475;SHT31;67766;51.964;5.660;2023-12-28T10:49:37;13.1;64.0
78475;SHT31;67766;51.964;5.660;2023-12-28T10:52:13;13.1;64.4
78475;SHT31;67766;51.964;5.660;2023-12-28T10:54:52;13.1;64.9
78475;SHT31;67766;51.964;5.660;2023-12-28T10:57:33;13.1;64.7
78475;SHT31;67766;51.964;5.660;2023-12-28T11:00:09;13.1;64.9
78475;SHT31;67766;51.964;5.660;2023-12-28T11:02:44;13.1;64.7
78475;SHT31;67766;51.964;5.660;2023-12-28T11:05:15;13.1;64.5
78475;SHT31;67766;51.964;5.660;2023-12-28T11:07:49;13.2;64.0
78475;SHT31;67766;51.964;5.660;2023-12-28T11:10:22;13.2;63.8
78475;SHT31;67766;51.964;5.660;2023-12-28T11:12:53;13.2;63.8
78475;SHT31;67766;51.964;5.660;2023-12-28T11:15:23;13.2;63.5
78475;SHT31;67766;51.964;5.660;2023-12-28T11:17:55;13.2;63.3
78475;SHT31;67766;51.964;5.660;2023-12-28T11:20:24;13.2;63.8
78475;SHT31;67766;51.964;5.660;2023-12-28T11:22:56;13.2;63.5
78475;SHT31;67766;51.964;5.660;2023-12-28T11:25:31;13.2;63.1
78475;SHT31;67766;51.964;5.660;2023-12-28T11:28:11;13.2;63.4
78475;SHT31;67766;51.964;5.660;2023-12-28T11:30:43;13.2;63.5
78475;SHT31;67766;51.964;5.660;2023-12-28T11:33:12;13.2;63.6
78475;SHT31;67766;51.964;5.660;2023-12-28T11:35:42;13.2;63.9
78475;SHT31;67766;51.964;5.660;2023-12-28T11:38:15;13.3;63.7
78475;SHT31;67766;51.964;5.660;2023-12-28T11:40:46;13.3;63.5
78475;SHT31;67766;51.964;5.660;2023-12-28T11:43:18;13.3;63.9
78475;SHT31;67766;51.964;5.660;2023-12-28T11:45:50;13.3;63.5
78475;SHT31;67766;51.964;5.660;2023-12-28T11:48:27;13.3;63.5
78475;SHT31;67766;51.964;5.660;2023-12-28T11:50:58;13.3;63.3
78475;SHT31;67766;51.964;5.660;2023-12-28T11:53:29;13.3;63.3
78475;SHT31;67766;51.964;5.660;2023-12-28T11:56:01;13.3;63.5
78475;SHT31;67766;51.964;5.660;2023-12-28T11:58:33;13.3;63.6
78475;SHT31;67766;51.964;5.660;2023-12-28T12:01:03;13.3;63.6
78475;SHT31;67766;51.964;5.660;2023-12-28T12:03:33;13.3;63.7
78475;SHT31;67766;51.964;5.660;2023-12-28T12:06:03;13.2;63.6
78475;SHT31;67766;51.964;5.660;2023-12-28T12:08:32;13.2;63.7
78475;SHT31;67766;51.964;5.660;2023-12-28T12:11:05;13.2;64.0
78475;SHT31;67766;51.964;5.660;2023-12-28T12:13:35;13.2;63.8
78475;SHT31;67766;51.964;5.660;2023-12-28T12:16:05;13.2;64.0
78475;SHT31;67766;51.964;5.660;2023-12-28T12:18:35;13.2;64.1
78475;SHT31;67766;51.964;5.660;2023-12-28T12:21:05;13.2;64.1
78475;SHT31;67766;51.964;5.660;2023-12-28T12:23:35;13.2;63.8
78475;SHT31;67766;51.964;5.660;2023-12-28T12:26:06;13.2;64.0
78475;SHT31;67766;51.964;5.660;2023-12-28T12:28:36;13.2;63.8
78475;SHT31;67766;51.964;5.660;2023-12-28T12:31:06;13.2;64.0
78475;SHT31;67766;51.964;5.660;2023-12-28T12:33:35;13.2;64.1
78475;SHT31;67766;51.964;5.660;2023-12-28T12:36:06;13.2;63.7
78475;SHT31;67766;51.964;5.660;2023-12-28T12:38:35;13.2;64.0
78475;SHT31;67766;51.964;5.660;2023-12-28T12:41:05;13.2;63.9
78475;SHT31;67766;51.964;5.660;2023-12-28T12:43:35;13.2;63.6
78475;SHT31;67766;51.964;5.660;2023-12-28T12:46:05;13.2;63.8
78475;SHT31;67766;51.964;5.660;2023-12-28T12:48:35;13.2;63.5
78475;SHT31;67766;51.964;5.660;2023-12-28T12:51:05;13.2;63.3
78475;SHT31;67766;51.964;5.660;2023-12-28T12:53:36;13.3;63.4
78475;SHT31;67766;51.964;5.660;2023-12-28T12:56:06;13.3;63.4
78475;SHT31;67766;51.964;5.660;2023-12-28T12:58:36;13.3;63.1
78475;SHT31;67766;51.964;5.660;2023-12-28T13:01:10;13.3;63.2
78475;SHT31;67766;51.964;5.660;2023-12-28T13:03:40;13.3;63.1
78475;SHT31;67766;51.964;5.660;2023-12-28T13:06:09;13.3;63.0
78475;SHT31;67766;51.964;5.660;2023-12-28T13:08:38;13.3;62.7
78475;SHT31;67766;51.964;5.660;2023-12-28T13:11:08;13.3;62.7
78475;SHT31;67766;51.964;5.660;2023-12-28T13:13:38;13.3;62.6
78475;SHT31;67766;51.964;5.660;2023-12-28T13:16:07;13.3;62.4
78475;SHT31;67766;51.964;5.660;2023-12-28T13:18:37;13.3;62.6
78475;SHT31;67766;51.964;5.660;2023-12-28T13:21:06;13.3;62.6
78475;SHT31;67766;51.964;5.660;2023-12-28T13:23:36;13.3;62.6
78475;SHT31;67766;51.964;5.660;2023-12-28T13:26:05;13.3;62.6
78475;SHT31;67766;51.964;5.660;2023-12-28T13:28:35;13.3;62.8
78475;SHT31;67766;51.964;5.660;2023-12-28T13:31:05;13.4;62.3
78475;SHT31;67766;51.964;5.660;2023-12-28T13:33:34;13.4;62.7
78475;SHT31;67766;51.964;5.660;2023-12-28T13:36:04;13.4;62.2
78475;SHT31;67766;51.964;5.660;2023-12-28T13:38:33;13.4;62.8
78475;SHT31;67766;51.964;5.660;2023-12-28T13:41:03;13.3;62.8
78475;SHT31;67766;51.964;5.660;2023-12-28T13:43:33;13.3;63.0
78475;SHT31;67766;51.964;5.660;2023-12-28T13:46:03;13.3;63.1
78475;SHT31;67766;51.964;5.660;2023-12-28T13:48:33;13.3;63.4
78475;SHT31;67766;51.964;5.660;2023-12-28T13:51:04;13.2;63.2
78475;SHT31;67766;51.964;5.660;2023-12-28T13:53:34;13.2;63.0
78475;SHT31;67766;51.964;5.660;2023-12-28T13:56:07;13.2;63.0
78475;SHT31;67766;51.964;5.660;2023-12-28T13:58:37;13.2;62.8
78475;SHT31;67766;51.964;5.660;2023-12-28T14:01:07;13.2;63.1
78475;SHT31;67766;51.964;5.660;2023-12-28T14:03:36;13.1;63.2
78475;SHT31;67766;51.964;5.660;2023-12-28T14:06:06;13.1;63.4
78475;SHT31;67766;51.964;5.660;2023-12-28T14:08:36;13.1;63.5
78475;SHT31;67766;51.964;5.660;2023-12-28T14:11:05;13.1;63.5
78475;SHT31;67766;51.964;5.660;2023-12-28T14:13:35;13.1;64.0
78475;SHT31;67766;51.964;5.660;2023-12-28T14:16:04;13.1;64.0
78475;SHT31;67766;51.964;5.660;2023-12-28T14:18:35;13.1;64.3
78475;SHT31;67766;51.964;5.660;2023-12-28T14:21:07;13.0;64.0
78475;SHT31;67766;51.964;5.660;2023-12-28T14:23:37;13.0;64.3
78475;SHT31;67766;51.964;5.660;2023-12-28T14:26:12;13.0;64.3
78475;SHT31;67766;51.964;5.660;2023-12-28T14:28:43;13.0;64.2
78475;SHT31;67766;51.964;5.660;2023-12-28T14:31:14;12.9;64.3
78475;SHT31;67766;51.964;5.660;2023-12-28T14:33:44;12.9;64.8
78475;SHT31;67766;51.964;5.660;2023-12-28T14:36:23;12.9;64.7
78475;SHT31;67766;51.964;5.660;2023-12-28T14:38:55;12.9;65.0
78475;SHT31;67766;51.964;5.660;2023-12-28T14:41:24;12.9;65.3
78475;SHT31;67766;51.964;5.660;2023-12-28T14:43:55;12.8;65.5
78475;SHT31;67766;51.964;5.660;2023-12-28T14:46:25;12.8;65.3
78475;SHT31;67766;51.964;5.660;2023-12-28T14:48:56;12.8;65.6
78475;SHT31;67766;51.964;5.660;2023-12-28T14:51:25;12.8;65.6
78475;SHT31;67766;51.964;5.660;2023-12-28T14:53:57;12.8;65.6
78475;SHT31;67766;51.964;5.660;2023-12-28T14:56:27;12.8;65.7
78475;SHT31;67766;51.964;5.660;2023-12-28T14:58:56;12.8;65.9
78475;SHT31;67766;51.964;5.660;2023-12-28T15:01:26;12.8;65.9
78475;SHT31;67766;51.964;5.660;2023-12-28T15:03:55;12.8;65.9
78475;SHT31;67766;51.964;5.660;2023-12-28T15:06:25;12.8;65.4
78475;SHT31;67766;51.964;5.660;2023-12-28T15:08:54;12.8;65.9
78475;SHT31;67766;51.964;5.660;2023-12-28T15:11:24;12.8;65.6
78475;SHT31;67766;51.964;5.660;2023-12-28T15:13:54;12.8;65.2
78475;SHT31;67766;51.964;5.660;2023-12-28T15:16:26;12.8;65.5
78475;SHT31;67766;51.964;5.660;2023-12-28T15:18:56;12.8;65.7
78475;SHT31;67766;51.964;5.660;2023-12-28T15:21:26;12.8;65.6
78475;SHT31;67766;51.964;5.660;2023-12-28T15:23:56;12.8;65.6
78475;SHT31;67766;51.964;5.660;2023-12-28T15:26:25;12.7;65.8
78475;SHT31;67766;51.964;5.660;2023-12-28T15:28:58;12.7;65.8
78475;SHT31;67766;51.964;5.660;2023-12-28T15:31:28;12.7;65.9
78475;SHT31;67766;51.964;5.660;2023-12-28T15:33:57;12.7;65.3
78475;SHT31;67766;51.964;5.660;2023-12-28T15:36:27;12.7;65.6
78475;SHT31;67766;51.964;5.660;2023-12-28T15:38:56;12.7;65.6
78475;SHT31;67766;51.964;5.660;2023-12-28T15:41:26;12.7;65.5
78475;SHT31;67766;51.964;5.660;2023-12-28T15:43:55;12.7;65.5
78475;SHT31;67766;51.964;5.660;2023-12-28T15:46:24;12.7;65.3
78475;SHT31;67766;51.964;5.660;2023-12-28T15:48:54;12.7;65.1
78475;SHT31;67766;51.964;5.660;2023-12-28T15:51:23;12.7;65.3
78475;SHT31;67766;51.964;5.660;2023-12-28T15:53:53;12.7;65.1
78475;SHT31;67766;51.964;5.660;2023-12-28T15:56:22;12.7;65.2
78475;SHT31;67766;51.964;5.660;2023-12-28T15:58:54;12.7;64.9
78475;SHT31;67766;51.964;5.660;2023-12-28T16:01:23;12.7;64.8
78475;SHT31;67766;51.964;5.660;2023-12-28T16:03:53;12.7;65.0
78475;SHT31;67766;51.964;5.660;2023-12-28T16:06:22;12.7;65.2
78475;SHT31;67766;51.964;5.660;2023-12-28T16:08:51;12.7;65.1
78475;SHT31;67766;51.964;5.660;2023-12-28T16:11:21;12.7;65.1
78475;SHT31;67766;51.964;5.660;2023-12-28T16:13:51;12.7;65.3
78475;SHT31;67766;51.964;5.660;2023-12-28T16:16:21;12.7;65.5
78475;SHT31;67766;51.964;5.660;2023-12-28T16:18:52;12.7;65.3
78475;SHT31;67766;51.964;5.660;2023-12-28T16:21:22;12.7;65.3